Wen Zhu Hai — BOCP — position and weather

sailwx.info

Track history (hours):
 
Tides and Currents Weather Stations Pressure Air Temp Water Temp Dewpoint Dewpoint Depression Visibility Wind Speed Wind Dir Waves Ship Positions

Wen Zhu Hai

Last reported at 2018-Jun-24 23:02 UTC. Time now 2018-Jun-25 14:15 UTC.
Position N 38°56' E 120°20'.

Length 225 m; draft 13.5 m.

Type: Cargo ship. MMSI: 413376000.

Date/timePositionNaut miles runAvg speedWind from/ knotsBaromVisibWave heightAir tempDewpointWater temp
2018-Jun-24 23:02N 38°56' E 120°20'010.1
2018-Jun-24 23:00N 38°56' E 120°20'910.5
2018-Jun-24 22:08N 39°03' E 120°13'210.4
2018-Jun-24 21:56N 39°05' E 120°11'510.5
2018-Jun-24 21:28N 39°09' E 120°07'510.7
2018-Jun-24 21:00N 39°13' E 120°04'610.4
2018-Jun-24 20:27N 39°18' E 119°60'1110.1
2018-Jun-24 19:20N 39°28' E 119°54'  
2018-Jun-20 22:30N 39°43' E 119°40'0 0.1
2018-Jun-20 20:39N 39°43' E 119°40'0 0.3
2018-Jun-20 20:27N 39°43' E 119°40'3 5.3
2018-Jun-20 19:52N 39°40' E 119°41'5 9.1
2018-Jun-20 19:19N 39°39' E 119°47'3 9.3
2018-Jun-20 18:57N 39°36' E 119°50'611.9
2018-Jun-20 18:29N 39°31' E 119°53'612.1
2018-Jun-20 18:00N 39°26' E 119°58'2211.8
2018-Jun-20 16:10N 39°10' E 120°15'511.2
2018-Jun-20 15:43N 39°06' E 120°20'211.3
2018-Jun-20 15:30N 39°04' E 120°22'611.4
2018-Jun-20 15:00N 39°00' E 120°27'611.0
2018-Jun-20 14:30N 38°57' E 120°32'611.6
2018-Jun-20 13:59N 38°52' E 120°37'612.1
2018-Jun-20 13:27N 38°47' E 120°43'1412.7
2018-Jun-20 12:20N 38°37' E 120°56'412.9
2018-Jun-20 12:00N 38°34' E 120°60'713.1
2018-Jun-20 11:29N 38°31' E 121°07'612.8
2018-Jun-20 11:00N 38°28' E 121°14'612.9
2018-Jun-20 10:30N 38°25' E 121°21'912.7
2018-Jun-20 09:48N 38°20' E 121°31'412.6
2018-Jun-20 09:30N 38°18' E 121°35'612.6
2018-Jun-20 08:59N 38°16' E 121°42'1712.2
2018-Jun-20 07:34N 38°07' E 122°01'112.0
2018-Jun-20 07:30N 38°06' E 122°02'2112.1
2018-Jun-20 05:44N 37°55' E 122°25'312.3
2018-Jun-20 05:28N 37°54' E 122°29'612.4
2018-Jun-20 05:00N 37°51' E 122°36'1813.0
2018-Jun-20 03:38N 37°42' E 122°55'  
Track history (hours):
 
Tides and Currents Weather Stations Pressure Air Temp Water Temp Dewpoint Dewpoint Depression Visibility Wind Speed Wind Dir Waves Ship Positions

Wen Zhu Hai

Last reported at 2018-Jun-24 23:02 UTC. Time now 2018-Jun-25 14:15 UTC.
Position N 38°56' E 120°20'.

Length 225 m; draft 13.5 m.

Type: Cargo ship. MMSI: 413376000.

Date/timePositionNaut miles runAvg speedWind from/ knotsBaromVisibWave heightAir tempDewpointWater temp
2018-Jun-24 23:02N 38°56' E 120°20'010.1
2018-Jun-24 23:00N 38°56' E 120°20'910.5
2018-Jun-24 22:08N 39°03' E 120°13'210.4
2018-Jun-24 21:56N 39°05' E 120°11'510.5
2018-Jun-24 21:28N 39°09' E 120°07'510.7
2018-Jun-24 21:00N 39°13' E 120°04'610.4
2018-Jun-24 20:27N 39°18' E 119°60'1110.1
2018-Jun-24 19:20N 39°28' E 119°54'  
2018-Jun-20 22:30N 39°43' E 119°40'0 0.1
2018-Jun-20 20:39N 39°43' E 119°40'0 0.3
2018-Jun-20 20:27N 39°43' E 119°40'3 5.3
2018-Jun-20 19:52N 39°40' E 119°41'5 9.1
2018-Jun-20 19:19N 39°39' E 119°47'3 9.3
2018-Jun-20 18:57N 39°36' E 119°50'611.9
2018-Jun-20 18:29N 39°31' E 119°53'612.1
2018-Jun-20 18:00N 39°26' E 119°58'2211.8
2018-Jun-20 16:10N 39°10' E 120°15'511.2
2018-Jun-20 15:43N 39°06' E 120°20'211.3
2018-Jun-20 15:30N 39°04' E 120°22'611.4
2018-Jun-20 15:00N 39°00' E 120°27'611.0
2018-Jun-20 14:30N 38°57' E 120°32'611.6
2018-Jun-20 13:59N 38°52' E 120°37'612.1
2018-Jun-20 13:27N 38°47' E 120°43'1412.7
2018-Jun-20 12:20N 38°37' E 120°56'412.9
2018-Jun-20 12:00N 38°34' E 120°60'713.1
2018-Jun-20 11:29N 38°31' E 121°07'612.8
2018-Jun-20 11:00N 38°28' E 121°14'612.9
2018-Jun-20 10:30N 38°25' E 121°21'912.7
2018-Jun-20 09:48N 38°20' E 121°31'412.6
2018-Jun-20 09:30N 38°18' E 121°35'612.6
2018-Jun-20 08:59N 38°16' E 121°42'1712.2
2018-Jun-20 07:34N 38°07' E 122°01'112.0
2018-Jun-20 07:30N 38°06' E 122°02'2112.1
2018-Jun-20 05:44N 37°55' E 122°25'312.3
2018-Jun-20 05:28N 37°54' E 122°29'612.4
2018-Jun-20 05:00N 37°51' E 122°36'1813.0
2018-Jun-20 03:38N 37°42' E 122°55'  

Dump ship's entire track history